Time;durP1;ratioP1;P1;durP2;ratioP2;P2;SDS_P1;SDS_P2;PMS_P1;PMS_P2;Temp;Humidity;BMP_temperature;BMP_pressure;BME280_temperature;BME280_humidity;BME280_pressure;Samples;Min_cycle;Max_cycle;Signal;HPM_P1;HPM_P2
2022/04/14 00:00:38;;;;;;;11.05;3.22;;;22.20;74.60;;;;;;5082045;28;20103;-69
2022/04/14 00:03:04;;;;;;;13.52;3.75;;;22.30;74.60;;;;;;5080325;28;20115;-68
2022/04/14 00:05:31;;;;;;;11.40;3.67;;;22.20;74.70;;;;;;5078349;28;20028;-70
2022/04/14 00:07:57;;;;;;;13.05;3.53;;;22.20;74.70;;;;;;5078647;28;20016;-70
2022/04/14 00:10:24;;;;;;;12.73;4.00;;;22.20;74.80;;;;;;5081601;28;20020;-67
2022/04/14 00:12:50;;;;;;;10.77;2.53;;;22.20;74.70;;;;;;5086335;28;20039;-73
2022/04/14 00:15:17;;;;;;;12.73;3.58;;;22.20;74.80;;;;;;5075348;28;20051;-70
2022/04/14 00:17:44;;;;;;;14.23;3.47;;;22.20;74.80;;;;;;5078661;28;20017;-72
2022/04/14 00:20:11;;;;;;;16.55;2.50;;;22.20;74.80;;;;;;5079044;28;20013;-71
2022/04/14 00:22:37;;;;;;;13.98;4.03;;;22.10;74.80;;;;;;5074624;28;20428;-67
2022/04/14 00:25:05;;;;;;;10.48;2.70;;;22.10;75.00;;;;;;5082200;28;20070;-78
2022/04/14 00:27:32;;;;;;;19.55;3.63;;;22.10;74.90;;;;;;5082062;28;20368;-72
2022/04/14 00:29:58;;;;;;;10.48;3.30;;;22.10;74.90;;;;;;5078176;28;20095;-74
2022/04/14 00:32:25;;;;;;;8.38;3.55;;;22.10;74.70;;;;;;5085050;28;20146;-71
2022/04/14 00:34:51;;;;;;;15.50;2.85;;;22.10;74.70;;;;;;5077940;28;20028;-75
2022/04/14 00:37:18;;;;;;;9.77;2.65;;;22.10;74.50;;;;;;5079182;28;20472;-67
2022/04/14 00:39:44;;;;;;;7.93;2.30;;;22.10;74.30;;;;;;5083442;28;20029;-67
2022/04/14 00:42:12;;;;;;;15.88;5.82;;;22.10;74.20;;;;;;5078907;28;20029;-76
2022/04/14 00:44:39;;;;;;;15.07;2.90;;;22.10;74.20;;;;;;5081530;28;20506;-76
2022/04/14 00:47:07;;;;;;;13.13;2.30;;;22.00;74.20;;;;;;5077448;28;20105;-69
2022/04/14 00:49:35;;;;;;;10.90;4.20;;;22.00;74.20;;;;;;5083689;28;20039;-69
2022/04/14 00:52:02;;;;;;;9.50;3.17;;;22.00;74.20;;;;;;5085582;28;20111;-68
2022/04/14 00:54:32;;;;;;;17.50;3.28;;;22.00;74.30;;;;;;5090324;28;20039;-67
2022/04/14 00:56:59;;;;;;;18.55;3.40;;;22.00;74.30;;;;;;5080791;28;20021;-70
2022/04/14 00:59:26;;;;;;;15.95;3.70;;;22.00;74.20;;;;;;5076350;28;20085;-73
2022/04/14 01:01:54;;;;;;;16.80;4.30;;;22.00;74.10;;;;;;5089059;28;20449;-68
2022/04/14 01:04:21;;;;;;;30.75;3.47;;;22.00;74.40;;;;;;5082545;28;20431;-66
2022/04/14 01:06:50;;;;;;;14.40;4.15;;;22.00;74.50;;;;;;5080902;28;20364;-76
2022/04/14 01:09:20;;;;;;;9.73;3.45;;;22.00;74.60;;;;;;5080798;28;20165;-70
2022/04/14 01:11:54;;;;;;;13.88;2.33;;;22.00;74.40;;;;;;5085959;28;20024;-71
2022/04/14 01:14:34;;;;;;;17.52;4.80;;;22.00;74.30;;;;;;5087528;28;20050;-75
2022/04/14 01:17:04;;;;;;;10.07;2.90;;;22.00;74.30;;;;;;5077400;28;20640;-73
2022/04/14 01:19:30;;;;;;;15.65;3.42;;;22.00;74.30;;;;;;5080410;28;20028;-72
2022/04/14 01:22:12;;;;;;;13.27;2.58;;;22.00;74.40;;;;;;5078006;28;20021;-73
2022/04/14 01:24:44;;;;;;;10.73;3.70;;;22.00;74.50;;;;;;5086329;28;20061;-68
2022/04/14 01:27:10;;;;;;;14.73;3.40;;;21.90;74.40;;;;;;5083922;28;20028;-69
2022/04/14 01:29:37;;;;;;;16.75;3.17;;;21.90;74.50;;;;;;5082589;28;20529;-75
2022/04/14 01:32:04;;;;;;;13.00;3.55;;;21.90;74.50;;;;;;5087188;28;20024;-74
2022/04/14 01:34:31;;;;;;;9.10;2.80;;;21.90;74.60;;;;;;5080225;28;20090;-72
2022/04/14 01:37:01;;;;;;;16.40;3.88;;;21.90;74.70;;;;;;5081338;28;20067;-66
2022/04/14 01:39:31;;;;;;;14.75;3.30;;;21.90;74.60;;;;;;5076710;28;20386;-72
2022/04/14 01:41:57;;;;;;;14.43;4.35;;;21.90;74.80;;;;;;5081027;28;20027;-68
2022/04/14 01:44:24;;;;;;;14.57;2.78;;;21.90;74.80;;;;;;5082605;28;20480;-76
2022/04/14 01:46:50;;;;;;;14.18;3.30;;;21.90;74.80;;;;;;5076630;28;20025;-74
2022/04/14 01:49:17;;;;;;;12.57;2.30;;;21.90;74.80;;;;;;5082555;28;20095;-72
2022/04/14 01:51:43;;;;;;;11.88;3.20;;;21.90;74.70;;;;;;5085128;28;20025;-75
2022/04/14 01:54:10;;;;;;;11.88;3.00;;;21.80;74.60;;;;;;5088689;28;20047;-66
2022/04/14 01:56:36;;;;;;;13.82;5.50;;;21.80;74.50;;;;;;5081139;28;20024;-68
2022/04/14 01:59:03;;;;;;;14.50;3.28;;;21.80;74.60;;;;;;5084562;28;20028;-71
2022/04/14 02:01:29;;;;;;;11.80;3.38;;;21.90;74.70;;;;;;5084224;28;20382;-69
2022/04/14 02:03:58;;;;;;;9.40;2.75;;;21.90;74.80;;;;;;5080278;28;20020;-68
2022/04/14 02:06:25;;;;;;;14.02;4.05;;;21.80;74.80;;;;;;5081199;28;20039;-70
2022/04/14 02:08:51;;;;;;;23.75;3.92;;;21.80;75.00;;;;;;5086085;28;20482;-72
2022/04/14 02:11:20;;;;;;;21.80;4.28;;;21.80;75.10;;;;;;5091314;28;20097;-70
2022/04/14 02:13:46;;;;;;;19.15;3.55;;;21.80;75.40;;;;;;5089855;28;20022;-66
2022/04/14 02:16:13;;;;;;;16.08;4.10;;;21.80;75.40;;;;;;5083648;28;20080;-69
2022/04/14 02:18:39;;;;;;;24.10;5.18;;;21.80;75.80;;;;;;5083756;28;20467;-74
2022/04/14 02:21:06;;;;;;;18.38;3.67;;;21.80;76.00;;;;;;5085332;28;20028;-70
2022/04/14 02:23:32;;;;;;;18.85;3.08;;;21.80;75.90;;;;;;5085374;28;20028;-70
2022/04/14 02:25:59;;;;;;;15.00;3.17;;;21.80;75.70;;;;;;5078702;28;20040;-71
2022/04/14 02:28:25;;;;;;;15.95;3.78;;;21.80;75.30;;;;;;5083070;28;20471;-67
2022/04/14 02:30:52;;;;;;;9.82;2.80;;;21.80;75.00;;;;;;5081494;28;20027;-66
2022/04/14 02:33:18;;;;;;;10.50;3.08;;;21.80;74.70;;;;;;5080404;28;20033;-73
2022/04/14 02:35:46;;;;;;;12.38;2.65;;;21.80;74.50;;;;;;5078270;28;20511;-71
2022/04/14 02:38:14;;;;;;;15.85;3.83;;;21.80;74.50;;;;;;5086907;28;20091;-67
2022/04/14 02:40:40;;;;;;;9.15;2.50;;;21.80;74.40;;;;;;5080174;28;20021;-70
2022/04/14 02:43:06;;;;;;;11.02;5.38;;;21.70;74.20;;;;;;5080988;28;20059;-71
2022/04/14 02:45:33;;;;;;;18.85;3.22;;;21.70;74.20;;;;;;5078502;28;20032;-70
2022/04/14 02:47:59;;;;;;;42.90;6.85;;;21.70;74.20;;;;;;5079392;28;20024;-71
2022/04/14 02:50:26;;;;;;;27.50;10.25;;;21.70;74.20;;;;;;5082747;28;20052;-68
2022/04/14 02:52:54;;;;;;;16.42;7.45;;;21.70;74.30;;;;;;5081749;28;20032;-67
2022/04/14 02:55:21;;;;;;;17.85;6.55;;;21.70;74.20;;;;;;5082365;28;20012;-71
2022/04/14 02:57:49;;;;;;;20.95;4.97;;;21.70;74.20;;;;;;5075614;28;20025;-70
2022/04/14 03:00:16;;;;;;;14.20;3.33;;;21.60;74.20;;;;;;5084924;28;20016;-72
2022/04/14 03:02:43;;;;;;;18.40;4.35;;;21.70;74.30;;;;;;5079726;28;20479;-74
2022/04/14 03:05:10;;;;;;;10.30;3.13;;;21.70;74.30;;;;;;5082536;28;20449;-68
2022/04/14 03:07:37;;;;;;;13.43;3.03;;;21.70;74.30;;;;;;5081440;28;20028;-69
2022/04/14 03:10:05;;;;;;;11.52;3.38;;;21.60;74.20;;;;;;5080011;28;20035;-74
2022/04/14 03:12:41;;;;;;;17.15;2.85;;;21.60;74.10;;;;;;5082653;28;20031;-70
2022/04/14 03:15:08;;;;;;;15.13;3.70;;;21.60;74.10;;;;;;5077584;28;20040;-69
2022/04/14 03:17:35;;;;;;;12.43;3.60;;;21.60;73.90;;;;;;5077285;28;20480;-69
2022/04/14 03:20:02;;;;;;;15.68;4.40;;;21.60;73.70;;;;;;5078059;28;20019;-72
2022/04/14 03:22:33;;;;;;;11.45;3.30;;;21.60;73.70;;;;;;5080933;28;20099;-74
2022/04/14 03:25:10;;;;;;;11.55;3.00;;;21.60;73.60;;;;;;5081215;28;20036;-73
2022/04/14 03:27:37;;;;;;;11.35;3.10;;;21.60;73.60;;;;;;5083831;28;20016;-72
2022/04/14 03:30:05;;;;;;;8.73;3.17;;;21.60;73.60;;;;;;5086580;28;20413;-68
2022/04/14 03:32:32;;;;;;;12.48;3.40;;;21.50;73.60;;;;;;5078150;28;20020;-73
2022/04/14 03:35:03;;;;;;;14.43;2.97;;;21.50;73.40;;;;;;5086326;28;20027;-69
2022/04/14 03:37:30;;;;;;;21.60;4.85;;;21.50;73.30;;;;;;5080621;28;20031;-68
2022/04/14 03:39:56;;;;;;;12.55;3.83;;;21.50;73.10;;;;;;5071705;28;20016;-68
2022/04/14 03:42:23;;;;;;;24.08;6.53;;;21.50;73.00;;;;;;5086875;28;20027;-73
2022/04/14 03:44:49;;;;;;;26.48;8.07;;;21.50;73.00;;;;;;5078627;28;20024;-73
2022/04/14 03:47:16;;;;;;;23.63;5.22;;;21.50;73.10;;;;;;5085012;28;20047;-72
2022/04/14 03:49:42;;;;;;;27.08;5.63;;;21.50;73.20;;;;;;5076279;28;20028;-68
2022/04/14 03:52:09;;;;;;;17.52;4.57;;;21.40;73.00;;;;;;5083668;28;20024;-73
2022/04/14 03:54:35;;;;;;;21.23;4.60;;;21.50;73.00;;;;;;5076887;28;20365;-79
2022/04/14 03:57:02;;;;;;;9.90;2.97;;;21.40;72.90;;;;;;5079133;28;20429;-74
2022/04/14 03:59:28;;;;;;;18.45;3.83;;;21.40;72.90;;;;;;5084997;28;20547;-74
2022/04/14 04:01:55;;;;;;;17.88;4.07;;;21.50;73.00;;;;;;5080475;28;20105;-73
2022/04/14 04:04:21;;;;;;;16.98;4.40;;;21.40;72.60;;;;;;5084369;28;20043;-70
2022/04/14 04:06:48;;;;;;;18.83;3.58;;;21.40;73.30;;;;;;5083204;28;20029;-80
2022/04/14 04:09:14;;;;;;;17.17;2.90;;;21.40;73.40;;;;;;5085442;28;20107;-68
2022/04/14 04:11:41;;;;;;;12.38;3.25;;;21.30;73.20;;;;;;5077912;28;20012;-69
2022/04/14 04:14:07;;;;;;;9.90;3.45;;;21.30;73.00;;;;;;5078852;28;20028;-73
2022/04/14 04:16:34;;;;;;;12.88;4.65;;;21.30;73.00;;;;;;5081470;28;20105;-75
2022/04/14 04:19:01;;;;;;;13.48;3.72;;;21.30;72.90;;;;;;5079917;28;20021;-70
2022/04/14 04:21:29;;;;;;;12.15;3.50;;;21.40;73.00;;;;;;5087185;28;20429;-68
2022/04/14 04:23:56;;;;;;;15.35;3.30;;;21.40;72.90;;;;;;5082609;28;20031;-71
2022/04/14 04:26:22;;;;;;;14.40;3.38;;;21.30;72.80;;;;;;5089290;28;20039;-69
2022/04/14 04:28:50;;;;;;;28.42;4.13;;;21.30;72.90;;;;;;5084436;28;20028;-69
2022/04/14 04:31:18;;;;;;;26.58;4.90;;;21.30;72.90;;;;;;5089232;28;20032;-68
2022/04/14 04:33:47;;;;;;;26.38;9.95;;;21.30;73.00;;;;;;5082983;28;20068;-70
2022/04/14 04:36:14;;;;;;;20.80;6.03;;;21.30;73.20;;;;;;5080032;28;21049;-78
2022/04/14 04:38:40;;;;;;;26.50;4.43;;;21.30;73.20;;;;;;5078399;28;20048;-69
2022/04/14 04:41:07;;;;;;;16.13;4.43;;;21.30;73.20;;;;;;5077931;28;20108;-78
2022/04/14 04:43:34;;;;;;;25.25;3.55;;;21.30;73.00;;;;;;5076875;28;20024;-76
2022/04/14 04:46:00;;;;;;;13.65;4.25;;;21.30;73.10;;;;;;5076147;28;20025;-72
2022/04/14 04:48:27;;;;;;;19.92;4.30;;;21.30;73.00;;;;;;5077983;28;20494;-82
2022/04/14 04:50:53;;;;;;;14.13;4.28;;;21.30;72.90;;;;;;5079975;28;20019;-78
2022/04/14 04:53:20;;;;;;;14.05;3.28;;;21.30;72.90;;;;;;5076442;28;20024;-78
2022/04/14 04:55:47;;;;;;;15.13;3.65;;;21.30;72.90;;;;;;5090236;28;20031;-77
2022/04/14 04:58:14;;;;;;;17.73;3.28;;;21.30;72.90;;;;;;5082359;28;20501;-78
2022/04/14 05:00:41;;;;;;;12.93;3.85;;;21.30;73.00;;;;;;5079577;28;20075;-80
2022/04/14 05:03:09;;;;;;;18.98;3.65;;;21.30;73.10;;;;;;5082810;28;20020;-73
2022/04/14 05:05:37;;;;;;;14.82;3.60;;;21.30;72.90;;;;;;5080217;28;20031;-75
2022/04/14 05:08:05;;;;;;;11.50;3.20;;;21.30;73.00;;;;;;5077749;28;20017;-78
2022/04/14 05:10:33;;;;;;;13.90;4.28;;;21.30;72.90;;;;;;5080366;28;20024;-74
2022/04/14 05:13:00;;;;;;;15.00;4.45;;;21.30;72.80;;;;;;5075251;28;20104;-75
2022/04/14 05:15:26;;;;;;;22.70;3.92;;;21.30;72.70;;;;;;5077631;28;20041;-73
2022/04/14 05:17:53;;;;;;;10.70;4.03;;;21.30;72.80;;;;;;5073954;28;20024;-74
2022/04/14 05:20:20;;;;;;;12.07;2.30;;;21.30;73.10;;;;;;5079096;28;20048;-70
2022/04/14 05:22:46;;;;;;;12.25;3.17;;;21.30;73.10;;;;;;5084284;28;20043;-72
2022/04/14 05:25:13;;;;;;;11.27;3.50;;;21.30;73.10;;;;;;5080236;28;20044;-77
2022/04/14 05:27:39;;;;;;;12.23;3.60;;;21.30;73.10;;;;;;5085963;28;20112;-70
2022/04/14 05:30:06;;;;;;;13.48;3.92;;;21.30;73.00;;;;;;5083259;28;20374;-79
2022/04/14 05:32:33;;;;;;;10.40;3.17;;;21.30;73.00;;;;;;5080595;28;20440;-70
2022/04/14 05:35:00;;;;;;;11.82;4.00;;;21.30;73.00;;;;;;5084687;28;20493;-68
2022/04/14 05:37:27;;;;;;;11.43;2.63;;;21.20;72.80;;;;;;5078335;28;20019;-76
2022/04/14 05:39:54;;;;;;;9.73;3.05;;;21.30;72.80;;;;;;5074298;28;20108;-69
2022/04/14 05:42:21;;;;;;;12.95;3.97;;;21.30;72.60;;;;;;5084326;28;20573;-78
2022/04/14 05:44:48;;;;;;;7.93;2.72;;;21.20;72.40;;;;;;5086927;28;20476;-72
2022/04/14 05:47:14;;;;;;;13.50;3.15;;;21.20;72.30;;;;;;5085218;28;20099;-79
2022/04/14 05:49:41;;;;;;;16.63;3.15;;;21.30;72.30;;;;;;5091303;28;20020;-85
2022/04/14 05:52:07;;;;;;;15.23;3.45;;;21.30;72.10;;;;;;5079179;28;20077;-83
2022/04/14 05:54:34;;;;;;;10.93;2.58;;;21.30;72.10;;;;;;5078179;28;20024;-83
2022/04/14 05:57:00;;;;;;;9.05;2.50;;;21.30;72.00;;;;;;5083459;28;20027;-77
2022/04/14 05:59:27;;;;;;;13.52;2.47;;;21.30;72.80;;;;;;5073651;28;20016;-84
2022/04/14 06:01:53;;;;;;;15.73;4.20;;;21.30;72.20;;;;;;5077200;28;20013;-83
2022/04/14 06:04:19;;;;;;;13.02;3.60;;;21.30;72.40;;;;;;5073676;28;20056;-83
2022/04/14 06:06:46;;;;;;;13.55;3.67;;;21.40;72.50;;;;;;5073630;28;20073;-81
2022/04/14 06:09:13;;;;;;;16.45;3.15;;;21.30;72.70;;;;;;5089406;28;20059;-83
2022/04/14 06:11:40;;;;;;;21.48;2.75;;;21.30;72.60;;;;;;5078968;28;20043;-84
2022/04/14 06:14:07;;;;;;;11.73;2.38;;;21.40;72.70;;;;;;5090547;28;20052;-79
2022/04/14 06:16:34;;;;;;;14.90;2.78;;;21.30;72.50;;;;;;5082148;28;20059;-82
2022/04/14 06:19:00;;;;;;;14.70;3.35;;;21.30;72.40;;;;;;5077132;28;20298;-84
2022/04/14 06:21:27;;;;;;;15.02;2.88;;;21.30;72.20;;;;;;5077111;28;20013;-81
2022/04/14 06:23:53;;;;;;;8.88;2.55;;;21.30;72.00;;;;;;5084626;28;20035;-85
2022/04/14 06:26:20;;;;;;;9.35;2.92;;;21.30;71.80;;;;;;5092873;28;20063;-82
2022/04/14 06:28:47;;;;;;;8.35;2.72;;;21.30;71.70;;;;;;5085173;28;20033;-84
2022/04/14 06:31:14;;;;;;;10.00;2.60;;;21.30;71.60;;;;;;5074834;28;20059;-82
2022/04/14 06:33:41;;;;;;;12.23;3.03;;;21.30;71.50;;;;;;5075569;28;20020;-69
2022/04/14 06:36:07;;;;;;;14.10;3.20;;;21.30;71.40;;;;;;5080835;28;20071;-69
2022/04/14 06:38:34;;;;;;;12.30;2.85;;;21.30;71.40;;;;;;5080748;28;20122;-81
2022/04/14 06:41:00;;;;;;;10.90;2.90;;;21.30;71.40;;;;;;5087287;28;20073;-80
2022/04/14 06:43:28;;;;;;;18.92;3.03;;;21.30;71.40;;;;;;5079855;28;20552;-84
2022/04/14 06:45:57;;;;;;;12.18;3.08;;;21.30;71.30;;;;;;5087542;28;20032;-77
2022/04/14 06:48:24;;;;;;;19.05;4.22;;;21.30;71.20;;;;;;5095518;28;20525;-83
2022/04/14 06:50:50;;;;;;;25.08;3.95;;;21.30;71.10;;;;;;5076582;28;20028;-82
2022/04/14 06:53:17;;;;;;;15.50;4.55;;;21.30;71.00;;;;;;5081026;28;20068;-83
2022/04/14 06:55:47;;;;;;;8.55;2.70;;;21.30;70.90;;;;;;5071993;28;20043;-81
2022/04/14 06:58:15;;;;;;;6.05;2.22;;;21.30;70.70;;;;;;5085541;28;20608;-85
2022/04/14 07:00:41;;;;;;;8.65;2.10;;;21.30;70.50;;;;;;5075104;28;20493;-81
2022/04/14 07:03:08;;;;;;;11.30;2.47;;;21.30;70.40;;;;;;5078212;28;20017;-84
2022/04/14 07:05:34;;;;;;;7.72;2.08;;;21.30;70.20;;;;;;5082274;28;20034;-82
2022/04/14 07:08:01;;;;;;;6.00;2.30;;;21.30;70.00;;;;;;5077602;28;20021;-85
2022/04/14 07:10:27;;;;;;;9.55;2.17;;;21.30;69.70;;;;;;5086511;28;20027;-81
2022/04/14 07:12:55;;;;;;;7.18;2.00;;;21.30;69.60;;;;;;5072656;28;20095;-79
2022/04/14 07:15:22;;;;;;;10.30;2.10;;;21.30;69.50;;;;;;5082965;28;20055;-84
2022/04/14 07:17:48;;;;;;;8.45;2.22;;;21.30;69.40;;;;;;5091340;28;20455;-75
2022/04/14 07:20:15;;;;;;;10.05;2.72;;;21.30;69.20;;;;;;5083111;28;20574;-82
2022/04/14 07:22:50;;;;;;;18.23;3.17;;;21.30;69.10;;;;;;5084574;28;20031;-85
2022/04/14 07:25:17;;;;;;;11.27;2.17;;;21.30;68.90;;;;;;5085016;28;20039;-86
2022/04/14 07:27:44;;;;;;;12.50;2.70;;;21.30;68.70;;;;;;5075275;28;20030;-80
2022/04/14 07:30:11;;;;;;;6.78;2.35;;;21.30;68.50;;;;;;5094156;28;20020;-83
2022/04/14 07:32:40;;;;;;;26.42;3.00;;;21.40;68.30;;;;;;5072878;28;20028;-84
2022/04/14 07:35:07;;;;;;;13.52;2.85;;;21.40;68.10;;;;;;5086032;28;20499;-82
2022/04/14 07:37:34;;;;;;;22.85;3.08;;;21.40;67.80;;;;;;5089908;28;20470;-83
2022/04/14 07:40:01;;;;;;;17.52;2.88;;;21.40;67.50;;;;;;5084013;28;20107;-83
2022/04/14 07:42:39;;;;;;;12.75;1.73;;;21.40;67.50;;;;;;5089968;28;20012;-79
2022/04/14 07:45:07;;;;;;;21.02;3.08;;;21.40;67.50;;;;;;5083672;28;20039;-85
2022/04/14 07:47:33;;;;;;;12.57;2.80;;;21.40;67.40;;;;;;5088951;28;20417;-82
2022/04/14 07:50:00;;;;;;;12.50;2.75;;;21.40;67.40;;;;;;5088896;28;20012;-85
2022/04/14 07:52:26;;;;;;;10.90;2.55;;;21.40;67.50;;;;;;5088378;28;20016;-84
2022/04/14 07:54:53;;;;;;;8.45;2.00;;;21.40;67.40;;;;;;5075679;28;20051;-83
2022/04/14 07:57:19;;;;;;;9.73;3.38;;;21.50;67.30;;;;;;5084941;28;20020;-82
2022/04/14 07:59:46;;;;;;;8.10;2.15;;;21.50;66.90;;;;;;5078425;28;20070;-81
2022/04/14 08:02:12;;;;;;;6.25;2.83;;;21.50;66.30;;;;;;5072963;28;20024;-84
2022/04/14 08:04:40;;;;;;;11.63;2.22;;;21.50;66.10;;;;;;5074594;28;20414;-84
2022/04/14 08:07:06;;;;;;;7.95;2.13;;;21.60;65.80;;;;;;5084106;28;20368;-83
2022/04/14 08:09:33;;;;;;;8.35;2.90;;;21.60;65.50;;;;;;5087443;28;20016;-84
2022/04/14 08:11:59;;;;;;;10.32;2.25;;;21.60;65.20;;;;;;5080046;28;20047;-78
2022/04/14 08:14:26;;;;;;;8.23;2.20;;;21.60;65.10;;;;;;5088406;28;20056;-84
2022/04/14 08:16:54;;;;;;;9.93;2.28;;;21.70;65.30;;;;;;5084637;28;20039;-76
2022/04/14 08:19:20;;;;;;;12.90;2.67;;;21.70;64.60;;;;;;5083999;28;20036;-79
2022/04/14 08:21:47;;;;;;;9.40;2.47;;;21.70;64.10;;;;;;5077760;28;20017;-78
2022/04/14 08:24:13;;;;;;;8.55;2.17;;;21.70;64.50;;;;;;5073212;28;20078;-79
2022/04/14 08:26:40;;;;;;;13.98;3.03;;;21.70;63.60;;;;;;5072421;28;20036;-74
2022/04/14 08:29:06;;;;;;;9.77;2.47;;;21.70;63.50;;;;;;5079556;28;20020;-83
2022/04/14 08:31:32;;;;;;;5.47;1.67;;;21.70;63.40;;;;;;5078180;28;20483;-83
2022/04/14 08:34:01;;;;;;;10.20;2.10;;;21.80;63.50;;;;;;5079817;28;20066;-85
2022/04/14 08:36:28;;;;;;;9.48;2.13;;;21.80;63.30;;;;;;5083171;28;20382;-83
2022/04/14 08:38:55;;;;;;;8.73;1.80;;;21.80;62.50;;;;;;5077308;28;20028;-80
2022/04/14 08:41:24;;;;;;;13.68;2.55;;;21.80;62.20;;;;;;5079679;28;20017;-85
2022/04/14 08:44:01;;;;;;;6.38;2.28;;;21.80;61.50;;;;;;5070264;28;20502;-85
2022/04/14 08:46:31;;;;;;;6.80;2.30;;;21.90;60.70;;;;;;5079374;28;20028;-73
2022/04/14 08:48:59;;;;;;;7.60;2.20;;;21.90;60.30;;;;;;5090151;28;20023;-82
2022/04/14 08:51:36;;;;;;;6.97;2.67;;;21.90;60.00;;;;;;5081686;28;20107;-81
2022/04/14 08:54:03;;;;;;;10.40;2.15;;;21.90;59.50;;;;;;5088064;28;20024;-79
2022/04/14 08:56:31;;;;;;;12.07;2.40;;;21.90;59.50;;;;;;5081850;28;20016;-81
2022/04/14 08:58:59;;;;;;;9.27;2.30;;;21.90;59.30;;;;;;5080554;28;20475;-84
2022/04/14 09:01:27;;;;;;;8.52;1.75;;;21.90;58.50;;;;;;5078536;28;20056;-82
2022/04/14 09:03:58;;;;;;;7.30;2.05;;;21.90;58.00;;;;;;5079156;28;20451;-77
2022/04/14 09:06:27;;;;;;;4.85;1.45;;;21.90;58.00;;;;;;5080917;28;20119;-82
2022/04/14 09:08:59;;;;;;;7.95;1.83;;;21.90;57.90;;;;;;5078042;28;20045;-81
2022/04/14 09:11:27;;;;;;;7.82;1.88;;;22.00;58.00;;;;;;5074935;28;20457;-78
2022/04/14 09:13:54;;;;;;;7.45;2.08;;;22.00;58.00;;;;;;5089915;28;20416;-84
2022/04/14 09:16:22;;;;;;;6.80;1.70;;;22.00;57.70;;;;;;5091021;28;20067;-78
2022/04/14 09:18:49;;;;;;;6.82;1.70;;;22.10;57.70;;;;;;5087671;28;20085;-78
2022/04/14 09:21:15;;;;;;;5.53;2.25;;;22.10;57.40;;;;;;5087790;28;20099;-78
2022/04/14 09:23:51;;;;;;;6.80;1.63;;;22.10;57.20;;;;;;5082056;28;20020;-84
2022/04/14 09:26:23;;;;;;;9.32;2.22;;;22.20;56.50;;;;;;5077220;28;20047;-85
2022/04/14 09:29:10;;;;;;;7.22;1.90;;;22.20;56.20;;;;;;5086730;28;20012;-83
2022/04/14 09:31:48;;;;;;;6.72;2.13;;;22.20;55.90;;;;;;5087305;28;20546;-84
2022/04/14 09:34:17;;;;;;;5.78;1.58;;;22.20;55.80;;;;;;5080593;28;20017;-77
2022/04/14 09:37:07;;;;;;;6.55;1.55;;;22.20;55.20;;;;;;5088336;28;20623;-84
2022/04/14 09:40:05;;;;;;;3.05;1.58;;;22.20;55.10;;;;;;5080057;28;20717;-81
2022/04/14 09:42:34;;;;;;;6.22;2.65;;;22.20;55.30;;;;;;5086368;28;20115;-86
2022/04/14 09:45:21;;;;;;;3.60;1.58;;;22.30;55.40;;;;;;5090819;28;20526;-78
2022/04/14 09:47:48;;;;;;;6.57;1.63;;;22.30;56.10;;;;;;5078316;28;20009;-75
2022/04/14 09:50:34;;;;;;;4.07;1.33;;;22.30;55.00;;;;;;5088096;28;20047;-81
2022/04/14 09:53:08;;;;;;;3.35;1.38;;;22.30;54.70;;;;;;5100618;28;20115;-76
2022/04/14 09:55:36;;;;;;;7.43;2.30;;;22.30;54.50;;;;;;5081587;28;20370;-80
2022/04/14 09:58:16;;;;;;;6.00;1.80;;;22.40;54.60;;;;;;5085673;28;20024;-83
2022/04/14 10:00:46;;;;;;;5.85;1.45;;;22.40;54.50;;;;;;5085478;28;20063;-81
2022/04/14 10:03:20;;;;;;;2.95;1.33;;;22.40;54.20;;;;;;5081196;28;20024;-76
2022/04/14 10:05:49;;;;;;;4.78;1.33;;;22.30;54.10;;;;;;5085574;28;20032;-76
2022/04/14 10:08:16;;;;;;;8.23;1.58;;;22.40;54.30;;;;;;5080944;28;20020;-82
2022/04/14 10:10:46;;;;;;;8.57;2.00;;;22.40;54.50;;;;;;5080694;28;20025;-85
2022/04/14 10:13:19;;;;;;;7.18;1.52;;;22.40;54.70;;;;;;5085626;28;20494;-78
2022/04/14 10:15:48;;;;;;;5.97;1.83;;;22.40;54.60;;;;;;5083499;28;20189;-79
2022/04/14 10:18:18;;;;;;;6.88;1.90;;;22.40;54.80;;;;;;5081506;28;20609;-77
2022/04/14 10:20:48;;;;;;;12.77;3.22;;;22.50;55.20;;;;;;5085720;28;20089;-81
2022/04/14 10:23:15;;;;;;;10.18;1.63;;;22.50;55.40;;;;;;5087373;28;20019;-84
2022/04/14 10:25:42;;;;;;;12.35;2.72;;;22.60;55.30;;;;;;5077272;28;20036;-85
2022/04/14 10:28:15;;;;;;;6.28;1.65;;;22.60;55.00;;;;;;5072862;28;20056;-88
2022/04/14 10:30:46;;;;;;;17.90;3.13;;;22.70;54.80;;;;;;5081335;28;20009;-80
2022/04/14 10:33:13;;;;;;;10.18;2.38;;;22.70;54.60;;;;;;5082659;28;20055;-72
2022/04/14 10:35:41;;;;;;;8.05;1.55;;;22.70;55.50;;;;;;5085157;28;20019;-77
2022/04/14 10:38:35;;;;;;;9.10;2.20;;;22.80;55.00;;;;;;5088141;28;20471;-80
2022/04/14 10:41:15;;;;;;;12.25;2.08;;;22.80;55.00;;;;;;5087568;28;20099;-81
2022/04/14 10:43:43;;;;;;;11.50;1.70;;;22.90;55.10;;;;;;5077916;28;20020;-79
2022/04/14 10:46:14;;;;;;;5.32;1.52;;;22.90;55.40;;;;;;5078648;28;20383;-71
2022/04/14 10:48:42;;;;;;;5.63;1.70;;;23.00;55.40;;;;;;5085407;28;20047;-83
2022/04/14 10:51:18;;;;;;;13.20;1.60;;;23.00;55.60;;;;;;5077307;28;20114;-81
2022/04/14 10:54:10;;;;;;;4.53;1.13;;;23.00;55.50;;;;;;5073720;28;20029;-83
2022/04/14 10:56:40;;;;;;;6.50;1.65;;;23.10;55.30;;;;;;5078247;28;20020;-78
2022/04/14 10:59:11;;;;;;;7.57;1.52;;;23.10;55.10;;;;;;5085507;28;20028;-80
2022/04/14 11:01:47;;;;;;;6.90;1.90;;;23.10;54.90;;;;;;5073519;28;20122;-78
2022/04/14 11:04:23;;;;;;;9.13;1.77;;;23.10;54.50;;;;;;5081447;28;20471;-83
2022/04/14 11:06:51;;;;;;;7.88;1.65;;;23.10;54.60;;;;;;5079666;28;20391;-83
2022/04/14 11:09:45;;;;;;;8.55;1.35;;;23.10;54.50;;;;;;5084421;28;20036;-79
2022/04/14 11:12:22;;;;;;;8.45;2.13;;;23.10;54.00;;;;;;5082857;28;20039;-80
2022/04/14 11:14:50;;;;;;;9.38;1.67;;;23.10;53.90;;;;;;5079468;28;20538;-78
2022/04/14 11:17:37;;;;;;;4.97;1.60;;;23.10;53.80;;;;;;5082853;28;20067;-73
2022/04/14 11:20:19;;;;;;;4.25;1.13;;;23.10;53.40;;;;;;5081233;28;20082;-72
2022/04/14 11:23:11;;;;;;;7.30;2.13;;;23.10;53.30;;;;;;5075881;28;20008;-81
2022/04/14 11:25:41;;;;;;;13.93;2.53;;;23.10;53.50;;;;;;5078131;28;20498;-79
2022/04/14 11:28:25;;;;;;;9.60;2.22;;;23.20;53.40;;;;;;5083003;28;20032;-78
2022/04/14 11:31:05;;;;;;;7.82;1.77;;;23.20;53.50;;;;;;5085699;28;20029;-76
2022/04/14 11:33:32;;;;;;;4.82;1.63;;;23.20;53.10;;;;;;5086895;28;20028;-77
2022/04/14 11:36:14;;;;;;;5.38;1.08;;;23.30;53.00;;;;;;5078339;28;20046;-75
2022/04/14 11:38:54;;;;;;;4.82;1.63;;;23.30;52.90;;;;;;5080727;28;20029;-82
2022/04/14 11:41:42;;;;;;;7.30;1.42;;;23.20;52.90;;;;;;5085829;28;20028;-74
2022/04/14 11:44:10;;;;;;;14.70;2.03;;;23.20;53.00;;;;;;5085902;28;20061;-77
2022/04/14 11:46:39;;;;;;;3.88;1.13;;;23.20;52.90;;;;;;5081440;28;20039;-76
2022/04/14 11:49:09;;;;;;;5.97;1.58;;;23.20;53.00;;;;;;5080862;28;20013;-79
2022/04/14 11:52:03;;;;;;;9.80;1.92;;;23.10;53.00;;;;;;5081351;28;20025;-85
2022/04/14 11:54:29;;;;;;;10.90;1.38;;;23.10;53.10;;;;;;5072324;28;20380;-80
2022/04/14 11:57:06;;;;;;;7.18;1.50;;;23.10;53.20;;;;;;5084260;28;20029;-76
2022/04/14 11:59:41;;;;;;;7.47;1.23;;;23.10;53.30;;;;;;5088093;28;20420;-83
2022/04/14 12:02:09;;;;;;;;;;;23.10;53.30;;;;;;5077076;28;20070;-74
2022/04/14 12:04:47;;;;;;;7.63;1.35;;;23.10;53.30;;;;;;5084178;28;19904;-74
2022/04/14 12:07:15;;;;;;;4.55;1.42;;;23.10;53.30;;;;;;5082686;28;20047;-79
2022/04/14 12:09:42;;;;;;;7.40;1.33;;;23.00;53.40;;;;;;5080870;28;20020;-77
2022/04/14 12:12:12;;;;;;;7.40;1.65;;;23.10;53.70;;;;;;5070738;28;20025;-77
2022/04/14 12:14:44;;;;;;;10.32;1.90;;;23.10;53.60;;;;;;5079564;28;20384;-83
2022/04/14 12:17:12;;;;;;;18.88;1.63;;;23.10;54.20;;;;;;5077198;28;20024;-77
2022/04/14 12:19:46;;;;;;;5.85;1.48;;;23.10;53.60;;;;;;5088533;28;20021;-85
2022/04/14 12:22:14;;;;;;;4.10;1.40;;;23.10;53.70;;;;;;5087298;28;20032;-78
2022/04/14 12:24:57;;;;;;;5.97;1.27;;;23.30;53.70;;;;;;5070528;28;20028;-72
2022/04/14 12:27:34;;;;;;;5.40;1.80;;;23.40;53.60;;;;;;5087076;28;20390;-81
2022/04/14 12:30:13;;;;;;;8.52;1.80;;;23.40;53.50;;;;;;5086003;28;20031;-79
2022/04/14 12:32:40;;;;;;;13.02;1.58;;;23.50;53.40;;;;;;5077872;28;20518;-77
2022/04/14 12:35:08;;;;;;;7.43;1.95;;;23.50;53.30;;;;;;5082427;28;20036;-84
2022/04/14 12:37:37;;;;;;;7.22;2.30;;;23.60;54.10;;;;;;5081016;28;20029;-80
2022/04/14 12:40:15;;;;;;;5.75;1.90;;;23.60;53.30;;;;;;5081791;28;20343;-81
2022/04/14 12:42:43;;;;;;;7.45;1.40;;;23.60;53.10;;;;;;5082126;28;20081;-79
2022/04/14 12:45:14;;;;;;;5.13;1.45;;;23.60;53.10;;;;;;5081261;28;20035;-79
2022/04/14 12:47:47;;;;;;;5.10;1.25;;;23.60;53.00;;;;;;5073752;28;20026;-77
2022/04/14 12:50:19;;;;;;;7.40;1.50;;;23.70;53.00;;;;;;5088635;28;20487;-83